createdAt,value
2023-05-09T00:00:00.293Z,74.73
2023-05-09T00:02:30.032Z,75.23
2023-05-09T00:04:58.428Z,73.79
2023-05-09T00:07:26.427Z,70.20
2023-05-09T00:09:54.442Z,69.72
2023-05-09T00:12:22.832Z,71.54
2023-05-09T00:14:52.028Z,72.16
2023-05-09T00:17:20.114Z,71.19
2023-05-09T00:19:49.113Z,69.44
2023-05-09T00:22:18.203Z,68.06
2023-05-09T00:24:46.135Z,67.43
2023-05-09T00:27:14.727Z,67.17
2023-05-09T00:29:43.921Z,67.36
2023-05-09T00:32:12.450Z,67.04
2023-05-09T00:34:40.903Z,67.30
2023-05-09T00:37:08.989Z,68.34
2023-05-09T00:39:37.045Z,70.66
2023-05-09T00:42:05.544Z,76.77
2023-05-09T00:44:33.339Z,81.20
2023-05-09T00:47:01.432Z,82.85
2023-05-09T00:49:30.046Z,82.76
2023-05-09T00:51:58.603Z,83.29
2023-05-09T00:54:28.978Z,85.59
2023-05-09T00:56:57.569Z,88.10
2023-05-09T00:59:25.747Z,90.62
2023-05-09T01:01:53.871Z,92.33
2023-05-09T01:04:22.265Z,91.10
2023-05-09T01:07:19.701Z,90.90
2023-05-09T01:10:10.753Z,90.08
2023-05-09T01:13:19.432Z,79.24
2023-05-09T01:16:00.292Z,76.56
2023-05-09T01:18:40.680Z,75.12
2023-05-09T01:21:14.556Z,74.70
2023-05-09T01:23:51.229Z,74.84
2023-05-09T01:26:51.973Z,75.23
2023-05-09T01:29:39.982Z,75.35
2023-05-09T01:32:20.274Z,75.06
2023-05-09T01:34:52.285Z,75.76
2023-05-09T01:37:26.148Z,74.36
2023-05-09T01:39:58.842Z,73.24
2023-05-09T01:42:31.432Z,73.74
2023-05-09T01:45:00.553Z,74.73
2023-05-09T01:47:30.169Z,74.28
2023-05-09T01:49:58.604Z,73.83
2023-05-09T01:52:27.459Z,72.80
2023-05-09T01:54:56.804Z,72.39
2023-05-09T01:57:25.547Z,72.32
2023-05-09T01:59:54.675Z,72.34
2023-05-09T02:02:23.705Z,73.01
2023-05-09T02:04:54.063Z,75.06
2023-05-09T02:07:24.980Z,77.42
2023-05-09T02:09:56.841Z,75.22
2023-05-09T02:12:25.139Z,73.51
2023-05-09T02:14:54.240Z,72.62
2023-05-09T02:17:22.536Z,73.12
2023-05-09T02:19:50.972Z,76.44
2023-05-09T02:22:41.617Z,83.58
2023-05-09T02:25:14.685Z,78.31
2023-05-09T02:27:45.907Z,77.20
2023-05-09T02:30:25.564Z,78.04
2023-05-09T02:33:01.989Z,74.74
2023-05-09T02:35:30.829Z,72.62
2023-05-09T02:38:00.627Z,71.90
2023-05-09T02:40:31.245Z,72.03
2023-05-09T02:42:59.568Z,74.82
2023-05-09T02:45:28.842Z,74.07
2023-05-09T02:47:56.877Z,72.50
2023-05-09T02:50:25.418Z,73.66
2023-05-09T02:52:53.420Z,73.87
2023-05-09T02:55:21.629Z,72.03
2023-05-09T02:57:56.217Z,71.07
2023-05-09T03:00:31.135Z,71.23
2023-05-09T03:03:00.503Z,70.93
2023-05-09T03:05:28.840Z,72.27
2023-05-09T03:07:56.854Z,72.04
2023-05-09T03:10:25.334Z,71.35
2023-05-09T03:12:53.478Z,69.66
2023-05-09T03:15:21.890Z,69.74
2023-05-09T03:17:50.265Z,69.35
2023-05-09T03:20:18.306Z,68.72
2023-05-09T03:22:46.241Z,68.60
2023-05-09T03:25:14.974Z,68.52
2023-05-09T03:27:43.094Z,67.91
2023-05-09T03:30:12.409Z,67.51
2023-05-09T03:32:41.584Z,66.93
2023-05-09T03:35:09.757Z,66.61
2023-05-09T03:37:38.195Z,66.34
2023-05-09T03:40:07.896Z,65.88
2023-05-09T03:42:37.791Z,65.25
2023-05-09T03:45:06.645Z,64.77
2023-05-09T03:47:35.660Z,64.25
2023-05-09T03:50:04.567Z,63.67
2023-05-09T03:52:33.154Z,63.17
2023-05-09T03:55:01.893Z,62.71
2023-05-09T03:57:36.200Z,61.81
2023-05-09T04:00:06.548Z,60.88
2023-05-09T04:02:43.318Z,61.27
2023-05-09T04:05:17.158Z,61.34
2023-05-09T04:07:58.391Z,60.46
2023-05-09T04:10:39.094Z,60.97
2023-05-09T04:13:07.582Z,59.87
2023-05-09T04:15:36.004Z,59.16
2023-05-09T04:18:05.065Z,58.64
2023-05-09T04:20:33.290Z,58.77
2023-05-09T04:23:09.073Z,58.38
2023-05-09T04:25:48.577Z,57.59
2023-05-09T04:28:17.716Z,56.72
2023-05-09T04:30:50.382Z,56.21
2023-05-09T04:33:21.632Z,55.43
2023-05-09T04:35:51.581Z,54.88
2023-05-09T04:38:19.911Z,54.38
2023-05-09T04:40:47.784Z,54.10
2023-05-09T04:43:16.189Z,53.08
2023-05-09T04:45:45.770Z,53.30
2023-05-09T04:48:14.692Z,51.87
2023-05-09T04:50:43.027Z,52.43
2023-05-09T04:53:11.405Z,51.46
2023-05-09T04:55:39.515Z,51.24
2023-05-09T04:58:09.960Z,50.89
2023-05-09T05:03:36.402Z,50.14
2023-05-09T05:06:05.840Z,49.86
2023-05-09T05:08:34.726Z,49.42
2023-05-09T05:11:02.955Z,48.75
2023-05-09T05:13:31.093Z,49.10
2023-05-09T05:16:00.494Z,47.95
2023-05-09T05:18:28.427Z,48.19
2023-05-09T05:20:56.514Z,47.53
2023-05-09T05:23:25.608Z,46.68
2023-05-09T05:25:54.034Z,46.41
2023-05-09T05:28:22.224Z,46.24
2023-05-09T05:30:50.676Z,45.83
2023-05-09T05:33:18.755Z,45.72
2023-05-09T05:35:47.365Z,45.06
2023-05-09T05:38:15.765Z,44.29
2023-05-09T05:40:48.512Z,44.12
2023-05-09T05:43:17.123Z,43.03
2023-05-09T05:45:45.548Z,42.98
2023-05-09T05:48:15.195Z,42.13
2023-05-09T05:50:43.762Z,41.61
2023-05-09T05:53:12.782Z,41.27
2023-05-09T05:55:41.602Z,41.34
2023-05-09T05:58:10.430Z,40.30
2023-05-09T06:00:38.613Z,40.48
2023-05-09T06:03:07.638Z,40.51
2023-05-09T06:05:37.044Z,39.56
2023-05-09T06:08:06.849Z,38.70
2023-05-09T06:10:35.263Z,38.95
2023-05-09T06:13:15.484Z,38.60
2023-05-09T06:15:44.777Z,38.28
2023-05-09T06:18:12.968Z,38.03
2023-05-09T06:20:41.272Z,37.37
2023-05-09T06:23:09.782Z,36.84
2023-05-09T06:25:37.637Z,36.48
2023-05-09T06:28:05.815Z,36.08
2023-05-09T06:30:34.504Z,35.75
2023-05-09T06:33:03.112Z,35.71
2023-05-09T06:35:31.314Z,37.88
2023-05-09T06:37:59.628Z,36.21
2023-05-09T06:40:27.937Z,37.43
2023-05-09T06:42:56.155Z,38.91
2023-05-09T06:45:24.526Z,40.21
2023-05-09T06:47:52.455Z,41.79
2023-05-09T06:50:20.812Z,39.55
2023-05-09T06:52:49.268Z,38.46
2023-05-09T06:55:17.608Z,39.82
2023-05-09T06:57:45.730Z,28.36
2023-05-09T07:00:15.266Z,42.47
2023-05-09T07:02:43.881Z,42.79
2023-05-09T07:05:12.718Z,32.66
2023-05-09T07:07:41.551Z,41.29
2023-05-09T07:10:12.301Z,39.84
2023-05-09T07:12:41.866Z,42.16
2023-05-09T07:15:11.493Z,43.66
2023-05-09T07:17:39.821Z,43.75
2023-05-09T07:20:09.132Z,31.98
2023-05-09T07:22:37.973Z,47.19
2023-05-09T07:25:09.128Z,44.28
2023-05-09T07:27:37.761Z,30.77
2023-05-09T07:30:07.154Z,32.20
2023-05-09T07:32:36.566Z,42.37
2023-05-09T07:35:05.268Z,32.52
2023-05-09T07:37:35.292Z,30.15
2023-05-09T07:40:04.087Z,34.45
2023-05-09T07:42:34.130Z,31.15
2023-05-09T07:45:04.604Z,31.43
2023-05-09T07:47:34.530Z,29.42
2023-05-09T07:50:02.735Z,30.56
2023-05-09T07:52:32.029Z,47.92
2023-05-09T07:55:00.693Z,27.33
2023-05-09T07:57:29.319Z,43.53
2023-05-09T07:59:57.584Z,24.23
2023-05-09T08:02:26.498Z,25.89
2023-05-09T08:04:55.282Z,24.61
2023-05-09T08:07:23.590Z,25.48
2023-05-09T08:09:51.705Z,25.97
2023-05-09T08:12:20.373Z,43.44
2023-05-09T08:14:48.436Z,29.05
2023-05-09T08:17:28.929Z,26.04
2023-05-09T08:19:57.642Z,31.34
2023-05-09T08:22:25.932Z,24.41
2023-05-09T08:24:54.152Z,24.25
2023-05-09T08:27:27.031Z,23.30
2023-05-09T08:29:55.369Z,22.86
2023-05-09T08:32:23.762Z,25.74
2023-05-09T08:34:52.626Z,39.65
2023-05-09T08:37:21.068Z,22.97
2023-05-09T08:39:49.408Z,23.76
2023-05-09T08:42:22.419Z,24.66
2023-05-09T08:44:51.209Z,24.05
2023-05-09T08:47:21.724Z,25.27
2023-05-09T08:49:52.267Z,26.57
2023-05-09T08:52:22.128Z,26.10
2023-05-09T08:55:05.673Z,27.15
2023-05-09T08:57:38.512Z,44.13
2023-05-09T09:00:07.740Z,27.00
2023-05-09T09:02:37.979Z,28.38
2023-05-09T09:07:39.706Z,43.31
2023-05-09T09:10:11.340Z,32.09
2023-05-09T09:12:41.504Z,27.97
2023-05-09T09:15:17.557Z,44.30
2023-05-09T09:17:51.270Z,41.01
2023-05-09T09:20:22.913Z,34.66
2023-05-09T09:22:54.121Z,21.58
2023-05-09T09:25:22.275Z,31.63
2023-05-09T09:27:50.428Z,20.20
2023-05-09T09:30:19.383Z,26.29
2023-05-09T09:32:47.476Z,21.03
2023-05-09T09:35:15.662Z,20.50
2023-05-09T09:37:44.320Z,24.77
2023-05-09T09:40:13.651Z,21.39
2023-05-09T09:42:47.606Z,21.47
2023-05-09T09:45:18.242Z,23.82
2023-05-09T09:47:48.961Z,39.88
2023-05-09T09:50:19.225Z,36.67
2023-05-09T09:52:51.981Z,34.25
2023-05-09T09:55:22.454Z,21.63
2023-05-09T09:57:51.999Z,32.79
2023-05-09T10:00:27.683Z,30.10
2023-05-09T10:02:58.282Z,20.91
2023-05-09T10:05:31.710Z,31.33
2023-05-09T10:08:02.610Z,37.12
2023-05-09T10:10:33.588Z,22.43
2023-05-09T10:13:10.044Z,36.55
2023-05-09T10:15:52.116Z,35.76
2023-05-09T10:18:27.994Z,24.79
2023-05-09T10:21:01.436Z,23.84
2023-05-09T10:23:39.040Z,37.77
2023-05-09T10:26:18.059Z,32.72
2023-05-09T10:28:50.231Z,26.75
2023-05-09T10:31:39.744Z,20.11
2023-05-09T10:34:12.641Z,19.52
2023-05-09T10:36:40.900Z,20.38
2023-05-09T10:39:09.606Z,19.72
2023-05-09T10:41:39.317Z,22.40
2023-05-09T10:44:07.832Z,20.20
2023-05-09T10:46:37.573Z,24.96
2023-05-09T10:49:06.290Z,21.48
2023-05-09T10:51:35.262Z,22.13
2023-05-09T10:54:18.409Z,37.21
2023-05-09T10:56:46.989Z,20.71
2023-05-09T10:59:39.683Z,38.72
2023-05-09T11:02:14.808Z,22.60
2023-05-09T11:04:44.764Z,21.83
2023-05-09T11:07:27.447Z,21.72
2023-05-09T11:10:17.157Z,41.71
2023-05-09T11:12:59.687Z,26.67
2023-05-09T11:15:28.421Z,42.20
2023-05-09T11:18:08.028Z,23.04
2023-05-09T11:20:45.125Z,26.27
2023-05-09T11:23:17.702Z,40.84
2023-05-09T11:25:50.218Z,25.10
2023-05-09T11:28:29.365Z,25.82
2023-05-09T11:31:14.438Z,27.86
2023-05-09T11:33:45.673Z,37.74
2023-05-09T11:36:32.536Z,27.29
2023-05-09T11:39:03.576Z,25.22
2023-05-09T11:41:39.953Z,25.71
2023-05-09T11:44:19.231Z,31.31
2023-05-09T11:46:49.510Z,24.76
2023-05-09T11:52:06.189Z,21.05
2023-05-09T11:54:34.297Z,21.78
2023-05-09T11:57:02.507Z,23.14
2023-05-09T11:59:32.387Z,22.66
2023-05-09T12:02:08.027Z,23.25
2023-05-09T12:04:37.364Z,20.93
2023-05-09T12:07:05.588Z,20.88
2023-05-09T12:09:35.806Z,21.01
2023-05-09T12:12:14.728Z,20.84
2023-05-09T12:14:42.872Z,21.92
2023-05-09T12:17:11.669Z,22.82
2023-05-09T12:19:39.778Z,23.50
2023-05-09T12:22:08.162Z,23.31
2023-05-09T12:24:40.186Z,23.90
2023-05-09T12:27:08.309Z,24.79
2023-05-09T12:29:37.042Z,33.75
2023-05-09T12:32:05.638Z,25.13
2023-05-09T12:34:34.047Z,29.77
2023-05-09T12:37:04.141Z,27.94
2023-05-09T12:39:32.448Z,38.56
2023-05-09T12:42:02.269Z,25.59
2023-05-09T12:44:31.123Z,36.07
2023-05-09T12:47:04.517Z,26.26
2023-05-09T12:49:37.535Z,26.74
2023-05-09T12:52:07.805Z,29.94
2023-05-09T12:54:38.112Z,23.63
2023-05-09T12:57:06.940Z,20.84
2023-05-09T12:59:35.303Z,20.32
2023-05-09T13:02:04.210Z,18.60
2023-05-09T13:04:32.502Z,18.46
2023-05-09T13:07:01.138Z,16.96
2023-05-09T13:09:30.126Z,18.26
2023-05-09T13:11:58.427Z,17.74
2023-05-09T13:14:28.068Z,16.15
2023-05-09T13:16:57.681Z,16.23
2023-05-09T13:19:26.098Z,16.72
2023-05-09T13:21:55.938Z,18.24
2023-05-09T13:24:24.534Z,19.67
2023-05-09T13:26:52.690Z,21.62
2023-05-09T13:29:20.682Z,21.31
2023-05-09T13:31:49.657Z,24.67
2023-05-09T13:34:18.002Z,22.96
2023-05-09T13:36:46.219Z,23.90
2023-05-09T13:39:15.168Z,23.73
2023-05-09T13:41:43.416Z,24.49
2023-05-09T13:44:11.554Z,25.29
2023-05-09T13:46:40.432Z,26.17
2023-05-09T13:49:08.980Z,26.68
2023-05-09T13:51:37.291Z,27.18
2023-05-09T13:54:10.993Z,26.92
2023-05-09T13:56:59.329Z,27.58
2023-05-09T13:59:34.623Z,31.99
2023-05-09T14:02:37.320Z,30.31
2023-05-09T14:05:28.281Z,35.30
2023-05-09T14:08:02.592Z,30.21
2023-05-09T14:10:31.221Z,27.11
2023-05-09T14:15:46.890Z,19.50
2023-05-09T14:18:20.089Z,16.68
2023-05-09T14:23:37.990Z,15.12
2023-05-09T14:26:07.288Z,14.51
2023-05-09T14:28:36.703Z,13.24
2023-05-09T14:31:05.085Z,15.05
2023-05-09T14:33:35.402Z,12.58
2023-05-09T14:36:04.301Z,12.63
2023-05-09T14:38:33.754Z,12.53
2023-05-09T14:41:02.769Z,12.53
2023-05-09T14:43:31.065Z,12.40
2023-05-09T14:45:59.941Z,13.59
2023-05-09T14:48:28.878Z,15.24
2023-05-09T14:50:57.462Z,16.21
2023-05-09T14:53:26.358Z,16.64
2023-05-09T14:55:55.818Z,15.76
2023-05-09T14:58:24.869Z,15.20
2023-05-09T15:00:54.178Z,13.94
2023-05-09T15:03:22.692Z,14.19
2023-05-09T15:05:54.067Z,15.08
2023-05-09T15:08:27.421Z,16.06
2023-05-09T15:10:55.798Z,18.46
2023-05-09T15:13:24.443Z,20.29
2023-05-09T15:15:52.929Z,22.29
2023-05-09T15:18:23.740Z,23.79
2023-05-09T15:20:52.613Z,24.71
2023-05-09T15:23:20.823Z,26.06
2023-05-09T15:25:49.487Z,28.37
2023-05-09T15:28:18.130Z,28.97
2023-05-09T15:30:46.862Z,31.47
2023-05-09T15:33:15.064Z,35.35
2023-05-09T15:35:44.566Z,34.46
2023-05-09T15:38:13.107Z,36.63
2023-05-09T15:40:41.803Z,36.92
2023-05-09T15:43:10.429Z,37.28
2023-05-09T15:45:44.046Z,37.32
2023-05-09T15:48:13.947Z,37.78
2023-05-09T15:53:31.772Z,38.23
2023-05-09T15:56:00.139Z,38.64
2023-05-09T16:01:15.057Z,31.93
2023-05-09T16:03:44.075Z,31.13
2023-05-09T16:06:13.238Z,29.70
2023-05-09T16:08:41.415Z,27.55
2023-05-09T16:11:10.619Z,25.75
2023-05-09T16:13:39.057Z,25.34
2023-05-09T16:16:07.581Z,26.61
2023-05-09T16:18:36.621Z,27.40
2023-05-09T16:21:05.122Z,28.00
2023-05-09T16:23:33.417Z,28.39
2023-05-09T16:26:02.160Z,27.83
2023-05-09T16:28:30.619Z,26.09
2023-05-09T16:31:00.723Z,25.21
2023-05-09T16:33:30.392Z,25.27
2023-05-09T16:36:37.570Z,26.61
2023-05-09T16:42:14.973Z,36.67
2023-05-09T16:44:43.463Z,37.45
2023-05-09T16:47:11.807Z,37.92
2023-05-09T16:49:39.854Z,39.80
2023-05-09T16:52:08.502Z,40.04
2023-05-09T16:54:36.780Z,39.60
2023-05-09T16:57:05.089Z,41.18
2023-05-09T16:59:33.746Z,40.35
2023-05-09T17:02:02.123Z,39.22
2023-05-09T17:04:30.484Z,40.80
2023-05-09T17:06:59.191Z,40.27
2023-05-09T17:09:27.505Z,42.83
2023-05-09T17:11:55.531Z,43.38
2023-05-09T17:14:27.209Z,43.43
2023-05-09T17:16:55.742Z,43.10
2023-05-09T17:19:24.189Z,41.77
2023-05-09T17:21:52.512Z,41.98
2023-05-09T17:24:20.769Z,42.23
2023-05-09T17:26:50.631Z,42.50
2023-05-09T17:29:18.678Z,43.21
2023-05-09T17:31:46.938Z,46.06
2023-05-09T17:34:15.541Z,46.85
2023-05-09T17:36:43.672Z,47.76
2023-05-09T17:39:12.204Z,49.08
2023-05-09T17:41:41.849Z,49.59
2023-05-09T17:44:10.089Z,50.97
2023-05-09T17:46:38.967Z,50.73
2023-05-09T17:49:10.625Z,49.72
2023-05-09T17:54:24.997Z,47.47
2023-05-09T17:56:59.407Z,47.81
2023-05-09T17:59:28.974Z,47.43
2023-05-09T18:01:57.271Z,47.76
2023-05-09T18:04:26.659Z,48.02
2023-05-09T18:06:59.024Z,46.92
2023-05-09T18:09:30.450Z,47.61
2023-05-09T18:12:01.101Z,47.12
2023-05-09T18:14:33.799Z,46.02
2023-05-09T18:17:03.567Z,44.54
2023-05-09T18:19:32.765Z,46.97
2023-05-09T18:22:01.955Z,47.10
2023-05-09T18:24:30.225Z,47.38
2023-05-09T18:29:49.065Z,53.50
2023-05-09T18:32:19.096Z,54.15
2023-05-09T18:34:48.870Z,50.11
2023-05-09T18:37:18.199Z,50.55
2023-05-09T18:42:34.873Z,63.29
2023-05-09T18:45:04.773Z,60.68
2023-05-09T18:47:33.150Z,57.98
2023-05-09T18:50:02.856Z,59.31
2023-05-09T18:52:33.052Z,62.53
2023-05-09T18:55:01.714Z,59.69
2023-05-09T18:57:31.896Z,58.02
2023-05-09T19:00:00.172Z,55.01
2023-05-09T19:02:30.759Z,54.34
2023-05-09T19:05:01.109Z,53.93
2023-05-09T19:07:30.198Z,51.13
2023-05-09T19:09:58.804Z,53.55
2023-05-09T19:12:27.216Z,52.66
2023-05-09T19:14:57.179Z,50.10
2023-05-09T19:17:25.454Z,49.57
2023-05-09T19:19:53.915Z,49.13
2023-05-09T19:22:22.628Z,50.51
2023-05-09T19:24:52.014Z,54.85
2023-05-09T19:27:20.971Z,58.10
2023-05-09T19:29:50.061Z,61.79
2023-05-09T19:32:21.290Z,63.39
2023-05-09T19:34:49.804Z,66.23
2023-05-09T19:37:17.938Z,65.61
2023-05-09T19:39:45.983Z,60.07
2023-05-09T19:42:15.150Z,54.96
2023-05-09T19:44:43.371Z,52.14
2023-05-09T19:47:11.579Z,56.42
2023-05-09T19:49:41.232Z,56.89
2023-05-09T19:52:09.656Z,56.00
2023-05-09T19:54:37.826Z,58.58
2023-05-09T19:57:07.358Z,61.08
2023-05-09T19:59:35.556Z,60.24
2023-05-09T20:02:19.147Z,57.32
2023-05-09T20:04:50.263Z,55.64
2023-05-09T20:07:18.628Z,56.45
2023-05-09T20:09:46.947Z,65.84
2023-05-09T20:12:15.632Z,69.90
2023-05-09T20:14:44.689Z,74.89
2023-05-09T20:17:12.764Z,75.25
2023-05-09T20:19:41.331Z,73.75
2023-05-09T20:22:09.493Z,73.86
2023-05-09T20:24:37.537Z,73.39
2023-05-09T20:27:05.837Z,69.24
2023-05-09T20:29:33.722Z,66.28
2023-05-09T20:32:01.931Z,64.91
2023-05-09T20:34:30.411Z,65.08
2023-05-09T20:36:58.508Z,67.32
2023-05-09T20:39:27.203Z,68.03
2023-05-09T20:41:56.332Z,68.13
2023-05-09T20:44:24.284Z,71.26
2023-05-09T20:46:53.074Z,71.54
2023-05-09T20:49:21.519Z,70.96
2023-05-09T20:51:49.479Z,71.31
2023-05-09T20:54:18.134Z,68.10
2023-05-09T20:56:46.816Z,65.59
2023-05-09T20:59:14.933Z,61.79
2023-05-09T21:01:44.199Z,63.58
2023-05-09T21:04:12.731Z,69.51
2023-05-09T21:06:40.700Z,74.74
2023-05-09T21:09:09.666Z,67.77
2023-05-09T21:11:38.985Z,65.23
2023-05-09T21:14:08.627Z,65.13
2023-05-09T21:16:36.561Z,67.66
2023-05-09T21:19:05.668Z,68.61
2023-05-09T21:21:33.636Z,68.99
2023-05-09T21:24:04.518Z,68.58
2023-05-09T21:26:32.911Z,65.18
2023-05-09T21:29:00.992Z,65.68
2023-05-09T21:31:29.071Z,69.11
2023-05-09T21:33:58.432Z,74.03
2023-05-09T21:36:26.427Z,75.47
2023-05-09T21:38:54.380Z,75.66
2023-05-09T21:41:22.784Z,75.26
2023-05-09T21:43:50.793Z,74.81
2023-05-09T21:46:18.809Z,74.36
2023-05-09T21:48:47.935Z,74.97
2023-05-09T21:51:15.807Z,74.79
2023-05-09T21:53:43.775Z,75.42
2023-05-09T21:56:12.262Z,75.01
2023-05-09T21:58:40.251Z,72.54
2023-05-09T22:01:08.103Z,70.30
2023-05-09T22:03:36.873Z,69.93
2023-05-09T22:06:04.875Z,70.51
2023-05-09T22:08:32.793Z,71.11
2023-05-09T22:11:01.138Z,71.39
2023-05-09T22:13:29.211Z,71.39
2023-05-09T22:15:57.331Z,71.62
2023-05-09T22:18:25.672Z,71.12
2023-05-09T22:20:53.643Z,72.77
2023-05-09T22:23:21.670Z,73.83
2023-05-09T22:25:49.946Z,73.46
2023-05-09T22:28:17.901Z,74.92
2023-05-09T22:30:45.857Z,76.99
2023-05-09T22:33:14.339Z,80.06
2023-05-09T22:35:42.521Z,80.68
2023-05-09T22:38:10.413Z,79.50
2023-05-09T22:40:38.882Z,76.13
2023-05-09T22:43:06.940Z,72.55
2023-05-09T22:45:34.962Z,70.73
2023-05-09T22:48:03.953Z,73.17
2023-05-09T22:50:32.199Z,73.71
2023-05-09T22:53:00.684Z,73.02
2023-05-09T22:55:29.223Z,73.24
2023-05-09T22:57:57.213Z,73.87
2023-05-09T23:00:25.204Z,73.96
2023-05-09T23:02:53.798Z,74.16
2023-05-09T23:05:22.267Z,74.57
2023-05-09T23:07:50.417Z,74.97
2023-05-09T23:10:18.916Z,74.79
2023-05-09T23:12:48.423Z,74.88
2023-05-09T23:15:16.496Z,76.56
2023-05-09T23:17:44.831Z,78.47
2023-05-09T23:20:12.947Z,79.24
2023-05-09T23:22:40.991Z,78.87
2023-05-09T23:25:09.820Z,77.10
2023-05-09T23:27:41.596Z,78.34
2023-05-09T23:30:10.469Z,78.77
2023-05-09T23:32:38.536Z,79.43
2023-05-09T23:35:06.944Z,79.87
2023-05-09T23:37:35.315Z,80.64
2023-05-09T23:40:04.891Z,81.16
2023-05-09T23:42:33.725Z,81.43
2023-05-09T23:45:01.906Z,81.52
2023-05-09T23:47:33.995Z,81.53
2023-05-09T23:50:02.315Z,81.77
2023-05-09T23:52:31.969Z,82.10
2023-05-09T23:54:59.871Z,82.51
2023-05-09T23:57:28.088Z,81.00
2023-05-09T23:59:56.122Z,81.56
